Time;durP1;ratioP1;P1;durP2;ratioP2;P2;SDS_P1;SDS_P2;PMS_P1;PMS_P2;Temp;Humidity;BMP_temperature;BMP_pressure;BME280_temperature;BME280_humidity;BME280_pressure;Samples;Min_cycle;Max_cycle;Signal;HPM_P1;HPM_P2
2022/11/26 00:02:29;;;;;;;2.23;2.03;;;7.90;99.90;;;8.00;nan;101650.91;5008480;28;20641;-67
2022/11/26 00:04:58;;;;;;;9.60;1.77;;;7.90;99.90;;;8.07;nan;101652.28;5010149;28;20670;-68
2022/11/26 00:07:28;;;;;;;2.20;1.93;;;7.80;99.90;;;8.00;nan;101647.44;5005645;28;20644;-68
2022/11/26 00:09:58;;;;;;;2.13;1.87;;;7.80;99.90;;;7.94;nan;101658.13;5010099;28;20683;-67
2022/11/26 00:12:33;;;;;;;3.70;2.13;;;7.70;99.90;;;7.83;nan;101661.19;5008913;28;20688;-66
2022/11/26 00:15:14;;;;;;;3.80;1.93;;;7.70;99.90;;;7.75;nan;101671.09;5010640;28;21195;-67
2022/11/26 00:17:41;;;;;;;2.30;2.10;;;7.60;99.90;;;7.70;nan;101673.88;5010520;28;21110;-66
2022/11/26 00:20:08;;;;;;;6.60;2.30;;;7.60;99.90;;;7.76;nan;101678.81;5011501;28;21165;-67
2022/11/26 00:22:52;;;;;;;2.67;1.83;;;7.50;99.90;;;7.70;nan;101684.28;5010212;28;20646;-66
2022/11/26 00:25:29;;;;;;;2.80;2.60;;;7.50;99.90;;;7.68;nan;101680.91;4994047;28;20662;-67
2022/11/26 00:27:58;;;;;;;4.50;2.03;;;7.50;99.90;;;7.62;nan;101686.34;4986748;28;20701;-66
2022/11/26 00:30:26;;;;;;;2.90;2.07;;;7.50;99.90;;;7.57;nan;101683.13;5008616;28;20638;-66
2022/11/26 00:32:54;;;;;;;2.30;2.10;;;7.40;99.90;;;7.63;nan;101690.63;5010487;28;21044;-66
2022/11/26 00:35:22;;;;;;;3.43;1.90;;;7.40;99.90;;;7.61;nan;101689.88;5013161;28;20709;-67
2022/11/26 00:37:57;;;;;;;4.40;2.80;;;7.50;99.90;;;7.58;nan;101696.94;5013283;28;20664;-67
2022/11/26 00:40:31;;;;;;;2.10;1.90;;;7.40;99.90;;;7.61;nan;101700.25;5014073;28;20614;-66
2022/11/26 00:42:58;;;;;;;1.57;1.47;;;7.40;99.90;;;7.61;nan;101705.44;5012513;28;21251;-67
2022/11/26 00:45:30;;;;;;;5.30;1.80;;;7.40;99.90;;;7.63;nan;101701.03;5012419;28;20629;-67
2022/11/26 00:47:57;;;;;;;1.97;1.40;;;7.40;99.90;;;7.62;nan;101709.72;4999153;28;20634;-66
2022/11/26 00:50:26;;;;;;;3.00;1.90;;;7.40;99.90;;;7.57;nan;101714.28;4995189;28;21376;-66
2022/11/26 00:52:55;;;;;;;5.57;1.70;;;7.40;99.90;;;7.51;nan;101713.69;4990435;28;20661;-67
2022/11/26 00:55:38;;;;;;;5.13;1.63;;;7.30;99.90;;;7.50;nan;101719.78;5004482;28;20640;-66
2022/11/26 00:58:12;;;;;;;1.90;1.80;;;7.30;99.90;;;7.48;nan;101719.84;5010364;28;20618;-66
2022/11/26 01:00:39;;;;;;;12.10;2.53;;;7.30;99.90;;;7.45;nan;101719.97;5002649;28;20638;-66
2022/11/26 01:03:06;;;;;;;3.37;2.00;;;7.20;99.90;;;7.46;nan;101723.41;5008705;28;20680;-65
2022/11/26 01:05:34;;;;;;;1.67;1.57;;;7.20;99.90;;;7.36;nan;101720.38;4996371;28;21403;-66
2022/11/26 01:08:27;;;;;;;2.30;2.10;;;7.20;99.90;;;7.31;nan;101729.25;5013473;28;20642;-66
2022/11/26 01:10:54;;;;;;;4.20;2.47;;;7.10;99.90;;;7.25;nan;101727.75;4997060;28;20717;-66
2022/11/26 01:13:21;;;;;;;5.73;2.20;;;7.10;99.90;;;7.31;nan;101737.03;5009507;28;21115;-67
2022/11/26 01:15:48;;;;;;;1.93;1.73;;;7.10;99.90;;;7.35;nan;101739.44;4976814;28;20866;-67
2022/11/26 01:18:19;;;;;;;5.67;2.10;;;7.10;99.90;;;7.43;nan;101742.56;4995821;28;20634;-67
2022/11/26 01:20:47;;;;;;;3.90;2.40;;;7.20;99.90;;;7.40;nan;101750.50;5013863;28;21241;-67
2022/11/26 01:23:17;;;;;;;2.67;2.47;;;7.20;99.90;;;7.45;nan;101755.50;4991646;28;20655;-67
2022/11/26 01:25:46;;;;;;;2.90;2.20;;;7.20;99.90;;;7.46;nan;101759.78;4998449;28;21271;-65
2022/11/26 01:28:18;;;;;;;9.43;2.10;;;7.20;99.90;;;7.46;nan;101762.38;5001957;28;20641;-67
2022/11/26 01:30:45;;;;;;;1.90;1.80;;;7.20;99.90;;;7.51;nan;101756.09;5011561;28;20638;-67
2022/11/26 01:33:12;;;;;;;4.97;2.10;;;7.30;99.90;;;7.48;nan;101763.16;5008935;28;20665;-66
2022/11/26 01:35:39;;;;;;;2.40;1.77;;;7.20;99.90;;;7.52;nan;101768.16;5011775;28;20688;-66
2022/11/26 01:38:15;;;;;;;4.40;2.33;;;7.30;99.90;;;7.58;nan;101767.09;4993230;28;20617;-65
2022/11/26 01:41:10;;;;;;;1.97;1.87;;;7.30;99.90;;;7.62;nan;101772.06;5000619;28;20639;-66
2022/11/26 01:43:42;;;;;;;2.53;2.20;;;7.30;99.90;;;7.70;nan;101776.94;4995788;28;20654;-66
2022/11/26 01:46:16;;;;;;;3.37;2.70;;;7.40;99.90;;;7.72;nan;101782.94;5012606;28;21068;-66
2022/11/26 01:48:44;;;;;;;2.57;2.40;;;7.40;99.90;;;7.71;nan;101791.63;5012853;28;20667;-66
2022/11/26 01:51:13;;;;;;;2.60;2.37;;;7.40;99.90;;;7.81;nan;101796.34;4993500;28;20629;-66
2022/11/26 01:53:47;;;;;;;3.50;2.67;;;7.50;99.90;;;7.83;nan;101799.78;5008749;28;20646;-66
2022/11/26 01:56:18;;;;;;;2.60;2.30;;;7.50;99.90;;;7.87;nan;101797.88;4987525;28;20645;-67
2022/11/26 01:58:55;;;;;;;4.80;2.40;;;7.50;99.90;;;7.93;nan;101802.81;4989887;28;20649;-68
2022/11/26 02:01:22;;;;;;;6.27;2.73;;;7.60;99.90;;;7.94;nan;101801.06;4993789;28;21002;-67
2022/11/26 02:04:01;;;;;;;3.27;2.10;;;7.60;99.90;;;8.02;nan;101809.38;5011461;28;20674;-67
2022/11/26 02:06:33;;;;;;;3.30;2.07;;;7.60;99.90;;;8.19;nan;101804.28;4992777;28;20644;-67
2022/11/26 02:09:04;;;;;;;4.50;1.90;;;7.70;99.90;;;8.18;nan;101811.22;5011735;28;20677;-68
2022/11/26 02:11:31;;;;;;;2.70;2.03;;;7.80;99.90;;;8.03;nan;101814.50;4993958;28;20707;-67
2022/11/26 02:14:05;;;;;;;2.37;2.17;;;7.80;99.90;;;8.03;nan;101821.47;5032257;23;20753;-65
2022/11/26 02:17:03;;;;;;;6.10;1.57;;;7.80;99.90;;;8.20;nan;101826.78;4977375;28;21268;-65
2022/11/26 02:20:15;;;;;;;2.60;1.93;;;7.90;99.90;;;8.18;nan;101820.78;4974549;28;20702;-65
2022/11/26 02:22:48;;;;;;;3.10;1.73;;;7.90;99.90;;;8.16;nan;101822.59;4994095;28;21261;-67
2022/11/26 02:25:55;;;;;;;3.83;1.60;;;7.90;99.90;;;8.07;nan;101823.84;4991816;28;20655;-66
2022/11/26 02:28:58;;;;;;;4.27;1.90;;;7.90;99.90;;;8.05;nan;101830.03;4993083;28;21010;-66
2022/11/26 02:31:47;;;;;;;4.10;1.77;;;7.80;99.90;;;8.05;nan;101835.25;4992582;28;20642;-65
2022/11/26 02:34:44;;;;;;;1.97;1.87;;;7.80;99.90;;;7.93;nan;101839.19;4991700;28;20659;-66
2022/11/26 02:37:46;;;;;;;3.47;2.60;;;7.80;99.90;;;7.91;nan;101838.41;4973157;28;20633;-66
2022/11/26 02:40:14;;;;;;;3.33;2.60;;;7.70;99.90;;;7.92;nan;101837.53;4999028;28;20700;-66
2022/11/26 02:42:40;;;;;;;5.40;2.60;;;7.70;99.90;;;7.82;nan;101842.22;4991392;28;20632;-66
2022/11/26 02:45:13;;;;;;;2.47;2.27;;;7.70;99.90;;;7.76;nan;101842.50;4992694;28;20662;-65
2022/11/26 02:47:43;;;;;;;2.67;2.43;;;7.60;99.90;;;7.69;nan;101848.84;4974827;28;21283;-65
2022/11/26 02:50:27;;;;;;;2.17;2.03;;;7.60;99.90;;;7.77;nan;101846.75;4974605;28;21033;-67
2022/11/26 02:52:57;;;;;;;1.50;1.40;;;7.60;99.90;;;7.70;nan;101853.16;4991908;28;20631;-65
2022/11/26 02:55:32;;;;;;;1.87;1.67;;;7.50;99.90;;;7.65;nan;101856.81;4956528;28;20701;-66
2022/11/26 02:58:00;;;;;;;2.23;1.77;;;7.50;99.90;;;7.67;nan;101863.66;4963665;28;20642;-65
2022/11/26 03:00:27;;;;;;;4.63;1.60;;;7.50;99.90;;;7.66;nan;101854.19;4974689;28;20634;-66
2022/11/26 03:03:22;;;;;;;0.93;0.93;;;7.50;99.90;;;7.73;nan;101863.38;4968110;28;20643;-66
2022/11/26 03:05:53;;;;;;;4.00;1.90;;;7.50;99.90;;;7.61;nan;101861.31;4976115;28;20692;-65
2022/11/26 03:08:21;;;;;;;2.73;1.60;;;7.50;99.90;;;7.63;nan;101862.09;4972939;28;21196;-66
2022/11/26 03:10:48;;;;;;;1.70;1.57;;;7.50;99.90;;;7.59;nan;101868.31;4975539;28;21166;-65
2022/11/26 03:13:15;;;;;;;1.23;1.13;;;7.50;99.90;;;7.58;nan;101870.97;4989312;28;20650;-65
2022/11/26 03:15:43;;;;;;;2.00;1.83;;;7.40;99.90;;;7.59;nan;101872.66;4991167;28;20646;-66
2022/11/26 03:18:10;;;;;;;2.43;2.23;;;7.40;99.90;;;7.49;nan;101871.34;4983171;28;20637;-65
2022/11/26 03:20:37;;;;;;;2.43;2.23;;;7.40;99.90;;;7.51;nan;101872.13;4990767;28;21076;-67
2022/11/26 03:23:04;;;;;;;5.40;1.57;;;7.30;99.90;;;7.53;nan;101871.16;4990388;28;21212;-65
2022/11/26 03:25:32;;;;;;;1.87;1.70;;;7.30;99.90;;;7.51;nan;101875.56;4990439;28;20643;-65
2022/11/26 03:28:00;;;;;;;3.60;2.30;;;7.30;99.90;;;7.46;nan;101871.44;4986681;28;20631;-65
2022/11/26 03:30:27;;;;;;;3.30;1.90;;;7.30;99.90;;;7.44;nan;101873.25;4992355;28;20701;-65
2022/11/26 03:32:55;;;;;;;1.67;1.57;;;7.20;99.90;;;7.43;nan;101872.41;4990940;28;21198;-65
2022/11/26 03:35:23;;;;;;;2.10;2.00;;;7.30;99.90;;;7.37;nan;101875.25;4992410;28;21029;-66
2022/11/26 03:37:50;;;;;;;2.93;1.90;;;7.20;99.90;;;7.34;nan;101869.34;4991191;28;20634;-67
2022/11/26 03:40:17;;;;;;;2.90;1.77;;;7.20;99.90;;;7.26;nan;101872.22;4990847;28;20669;-65
2022/11/26 03:42:44;;;;;;;3.10;2.20;;;7.10;99.90;;;7.26;nan;101869.63;4991022;28;20643;-66
2022/11/26 03:45:11;;;;;;;1.70;1.60;;;7.10;99.90;;;7.27;nan;101871.31;4989983;28;21087;-65
2022/11/26 03:47:38;;;;;;;1.60;1.37;;;7.10;99.90;;;7.22;nan;101875.00;4990914;28;20650;-66
2022/11/26 03:50:06;;;;;;;1.70;1.60;;;7.10;99.90;;;7.10;nan;101873.72;4974743;28;20674;-65
2022/11/26 03:52:33;;;;;;;4.43;1.73;;;7.00;99.90;;;7.03;nan;101870.50;4991236;28;20627;-65
2022/11/26 03:55:00;;;;;;;1.90;1.80;;;7.00;99.90;;;7.01;nan;101868.88;4991015;28;20689;-65
2022/11/26 03:57:27;;;;;;;3.17;2.27;;;6.90;99.90;;;6.99;nan;101873.28;4991859;28;20999;-65
2022/11/26 03:59:54;;;;;;;2.37;2.00;;;6.90;99.90;;;6.90;nan;101871.00;4990358;28;20635;-66
2022/11/26 04:02:21;;;;;;;2.93;1.90;;;6.80;99.90;;;6.88;nan;101868.47;4990249;28;21029;-66
2022/11/26 04:04:48;;;;;;;1.77;1.63;;;6.80;99.90;;;6.94;nan;101867.44;4990322;28;20733;-67
2022/11/26 04:07:15;;;;;;;2.50;2.20;;;6.80;99.90;;;6.76;nan;101866.34;4972586;28;20640;-65
2022/11/26 04:09:42;;;;;;;1.53;1.47;;;6.70;99.90;;;6.75;nan;101871.59;4992641;28;20669;-65
2022/11/26 04:12:09;;;;;;;1.93;1.70;;;6.70;99.90;;;6.76;nan;101862.91;4995162;28;20669;-65
2022/11/26 04:14:36;;;;;;;1.73;1.50;;;6.60;99.90;;;6.75;nan;101861.22;4994538;28;20724;-66
2022/11/26 04:17:07;;;;;;;1.83;1.73;;;6.60;99.90;;;6.66;nan;101857.22;4994366;28;20638;-65
2022/11/26 04:19:34;;;;;;;3.27;2.73;;;6.60;99.90;;;6.87;nan;101861.63;4994796;28;21019;-66
2022/11/26 04:22:01;;;;;;;1.90;1.80;;;6.70;99.90;;;6.82;nan;101860.94;4995544;28;20729;-65
2022/11/26 04:24:28;;;;;;;4.93;2.23;;;6.70;99.90;;;6.72;nan;101859.59;4995321;28;20669;-65
2022/11/26 04:26:55;;;;;;;3.90;2.27;;;6.60;99.90;;;6.68;nan;101850.22;4996628;28;21224;-65
2022/11/26 04:29:22;;;;;;;2.27;2.10;;;6.60;99.90;;;6.68;nan;101854.56;4994115;28;20670;-65
2022/11/26 04:31:49;;;;;;;2.37;2.23;;;6.60;99.90;;;6.67;nan;101860.63;4994146;28;20642;-65
2022/11/26 04:34:16;;;;;;;2.80;2.60;;;6.50;99.90;;;6.51;nan;101860.38;4994029;28;20658;-66
2022/11/26 04:36:43;;;;;;;2.77;2.57;;;6.40;99.90;;;6.49;nan;101869.94;5009886;28;21020;-66
2022/11/26 04:39:11;;;;;;;2.43;2.30;;;6.40;99.90;;;6.48;nan;101869.97;4986834;28;20643;-66
2022/11/26 04:41:38;;;;;;;2.57;2.37;;;6.40;99.90;;;6.47;nan;101874.34;4994802;28;20635;-66
2022/11/26 04:44:05;;;;;;;2.93;2.63;;;6.40;99.90;;;6.50;nan;101883.72;4993278;28;21037;-66
2022/11/26 04:46:32;;;;;;;4.20;2.73;;;6.40;99.90;;;6.42;nan;101883.16;4994454;28;21054;-66
2022/11/26 04:48:59;;;;;;;2.40;2.13;;;6.30;99.90;;;6.34;nan;101887.78;4993768;28;20638;-66
2022/11/26 04:51:26;;;;;;;3.63;2.27;;;6.30;99.90;;;6.39;nan;101896.25;4992562;28;21482;-65
2022/11/26 04:53:53;;;;;;;2.53;2.30;;;6.30;99.90;;;6.46;nan;101895.13;4992943;28;20664;-66
2022/11/26 04:56:22;;;;;;;7.63;2.73;;;6.30;99.90;;;6.42;nan;101896.13;4993341;28;20649;-66
2022/11/26 04:58:49;;;;;;;4.00;2.97;;;6.30;99.90;;;6.38;nan;101897.97;4993815;28;20639;-66
2022/11/26 05:01:16;;;;;;;5.93;2.67;;;6.30;99.90;;;6.40;nan;101903.97;4994982;28;21062;-66
2022/11/26 05:03:43;;;;;;;4.40;2.47;;;6.30;99.90;;;6.36;nan;101906.72;4991749;28;20716;-65
2022/11/26 05:06:10;;;;;;;3.77;2.73;;;6.30;99.90;;;6.36;nan;101904.13;4994328;28;20643;-65
2022/11/26 05:08:37;;;;;;;3.63;2.30;;;6.30;99.90;;;6.26;nan;101909.59;4992340;28;20639;-67
2022/11/26 05:11:04;;;;;;;2.93;2.70;;;6.20;99.90;;;6.25;nan;101907.94;4994242;28;20666;-66
2022/11/26 05:13:31;;;;;;;5.67;2.83;;;6.20;99.90;;;6.27;nan;101915.66;4992604;28;20646;-67
2022/11/26 05:15:59;;;;;;;2.23;2.13;;;6.10;99.90;;;6.19;nan;101928.03;4994491;28;20635;-66
2022/11/26 05:18:26;;;;;;;2.97;2.60;;;6.10;99.90;;;6.17;nan;101929.81;4991908;28;21136;-66
2022/11/26 05:20:52;;;;;;;2.40;2.30;;;6.10;99.90;;;6.20;nan;101933.16;4976396;28;21217;-65
2022/11/26 05:23:19;;;;;;;3.50;2.37;;;6.00;99.90;;;6.16;nan;101947.09;4993443;28;20646;-66
2022/11/26 05:25:49;;;;;;;5.43;3.10;;;6.10;99.90;;;6.16;nan;101949.69;4976270;28;20630;-65
2022/11/26 05:28:16;;;;;;;3.40;2.20;;;6.00;99.90;;;6.20;nan;101946.09;4989541;28;20647;-65
2022/11/26 05:30:43;;;;;;;3.93;2.37;;;6.00;99.90;;;6.11;nan;101950.75;4992941;28;21234;-65
2022/11/26 05:33:10;;;;;;;2.97;2.77;;;6.00;99.90;;;6.13;nan;101952.38;4991688;28;20645;-66
2022/11/26 05:35:37;;;;;;;3.07;2.60;;;6.00;99.90;;;6.12;nan;101947.25;4992511;28;20631;-66
2022/11/26 05:38:05;;;;;;;7.73;2.63;;;6.00;99.90;;;6.01;nan;101955.38;4993022;28;20598;-66
2022/11/26 05:40:32;;;;;;;2.60;2.40;;;5.90;99.90;;;6.07;nan;101954.31;4971439;28;20717;-66
2022/11/26 05:42:59;;;;;;;2.90;2.70;;;5.90;99.90;;;6.03;nan;101970.88;4974719;28;20636;-65
2022/11/26 05:45:26;;;;;;;3.20;2.90;;;5.90;99.90;;;6.04;nan;101976.03;4992499;28;20642;-66
2022/11/26 05:47:53;;;;;;;4.70;3.30;;;5.90;99.90;;;6.05;nan;101975.09;4992827;28;20633;-65
2022/11/26 05:50:20;;;;;;;5.30;3.20;;;5.90;99.90;;;5.96;nan;101980.56;4992453;28;20666;-66
2022/11/26 05:52:47;;;;;;;2.93;2.43;;;5.90;99.90;;;6.03;nan;101979.50;4993011;28;20615;-66
2022/11/26 05:55:15;;;;;;;5.23;3.07;;;5.90;99.90;;;6.07;nan;101983.69;4992842;28;20697;-66
2022/11/26 05:57:42;;;;;;;4.80;2.63;;;5.90;99.90;;;6.08;nan;101980.19;4992760;28;20707;-64
2022/11/26 06:00:10;;;;;;;3.30;3.00;;;5.90;99.90;;;6.03;nan;101982.09;4984008;28;20650;-65
2022/11/26 06:02:38;;;;;;;3.77;3.10;;;5.90;99.90;;;6.03;nan;101984.69;4993077;28;20642;-66
2022/11/26 06:05:06;;;;;;;3.33;2.40;;;5.90;99.90;;;6.07;nan;101988.00;4992593;28;20705;-67
2022/11/26 06:07:33;;;;;;;4.20;3.03;;;5.90;99.90;;;6.12;nan;101992.16;4992924;28;20692;-66
2022/11/26 06:10:00;;;;;;;4.53;2.60;;;6.00;99.90;;;6.13;nan;101983.47;4991982;28;20662;-66
2022/11/26 06:12:27;;;;;;;3.63;3.27;;;6.00;99.90;;;6.06;nan;101991.50;4992404;28;20634;-65
2022/11/26 06:14:54;;;;;;;5.90;4.10;;;5.90;99.90;;;5.98;nan;101991.75;4991884;28;21044;-65
2022/11/26 06:17:21;;;;;;;8.47;3.67;;;5.90;99.90;;;6.01;nan;102002.00;4992493;28;20689;-67
2022/11/26 06:19:48;;;;;;;4.10;3.70;;;5.90;99.90;;;6.02;nan;102003.72;4991494;28;20630;-65
2022/11/26 06:22:15;;;;;;;7.20;3.80;;;5.90;99.90;;;5.92;nan;102006.66;4991887;28;20670;-66
2022/11/26 06:24:42;;;;;;;6.33;3.90;;;5.80;99.90;;;5.96;nan;102003.88;4993157;28;20658;-66
2022/11/26 06:27:09;;;;;;;3.53;3.23;;;5.90;99.90;;;6.00;nan;102010.69;4992286;28;21187;-66
2022/11/26 06:29:36;;;;;;;5.50;4.07;;;5.90;99.90;;;5.94;nan;102013.47;4991915;28;21206;-65
2022/11/26 06:32:03;;;;;;;5.80;4.03;;;5.80;99.90;;;5.96;nan;102011.66;4992707;28;20627;-65
2022/11/26 06:34:30;;;;;;;7.27;4.50;;;5.80;99.90;;;5.92;nan;102017.84;4990884;28;20658;-66
2022/11/26 06:36:57;;;;;;;6.03;4.30;;;5.80;99.90;;;6.00;nan;102025.38;4991536;28;20627;-65
2022/11/26 06:39:24;;;;;;;5.77;3.77;;;5.80;99.90;;;5.99;nan;102031.44;4991128;28;20631;-66
2022/11/26 06:41:50;;;;;;;5.40;3.60;;;5.80;99.90;;;5.98;nan;102028.03;4992418;28;20780;-65
2022/11/26 06:44:17;;;;;;;3.03;2.70;;;5.80;99.90;;;5.84;nan;102030.19;4992481;28;20667;-67
2022/11/26 06:46:44;;;;;;;4.07;2.43;;;5.80;99.90;;;5.95;nan;102025.53;4991827;28;20629;-66
2022/11/26 06:49:11;;;;;;;3.23;2.40;;;5.80;99.90;;;5.92;nan;102035.16;4991530;28;20634;-65
2022/11/26 06:51:38;;;;;;;3.33;2.67;;;5.80;99.90;;;5.93;nan;102029.91;4992032;28;21245;-65
2022/11/26 06:54:06;;;;;;;8.97;3.80;;;5.80;99.90;;;5.88;nan;102036.97;4987363;28;20720;-65
2022/11/26 06:56:34;;;;;;;4.70;3.83;;;5.80;99.90;;;5.84;nan;102040.53;4989863;28;20643;-66
2022/11/26 06:59:01;;;;;;;6.77;2.17;;;5.80;99.90;;;5.95;nan;102040.22;4989658;28;20635;-64
2022/11/26 07:01:28;;;;;;;3.67;2.43;;;5.70;99.90;;;5.82;nan;102046.63;4992347;28;20637;-65
2022/11/26 07:03:55;;;;;;;3.57;1.93;;;5.80;99.90;;;5.89;nan;102037.81;4991046;28;20658;-65
2022/11/26 07:06:31;;;;;;;3.67;2.50;;;5.70;99.90;;;5.82;nan;102042.31;4983470;28;20643;-66
2022/11/26 07:09:04;;;;;;;8.70;2.40;;;5.70;99.90;;;5.85;nan;102042.25;4987519;28;20655;-68
2022/11/26 07:11:31;;;;;;;5.70;3.40;;;5.70;99.90;;;5.97;nan;102046.19;4984478;28;20705;-65
2022/11/26 07:13:58;;;;;;;4.97;3.27;;;5.80;99.90;;;6.05;nan;102060.63;4990647;28;20724;-67
2022/11/26 07:16:25;;;;;;;2.37;2.27;;;5.80;99.90;;;6.02;nan;102062.47;4990914;28;20672;-66
2022/11/26 07:18:55;;;;;;;2.20;2.10;;;5.90;99.90;;;6.03;nan;102061.56;4989788;28;20820;-66
2022/11/26 07:21:29;;;;;;;2.30;2.10;;;5.90;99.90;;;6.05;nan;102070.97;4990809;28;20590;-65
2022/11/26 07:23:57;;;;;;;3.83;3.17;;;5.90;99.90;;;6.03;nan;102072.78;4988661;28;20663;-65
2022/11/26 07:26:23;;;;;;;4.00;3.07;;;5.90;99.90;;;6.12;nan;102069.91;4989655;28;20632;-66
2022/11/26 07:28:51;;;;;;;3.10;2.90;;;5.90;99.90;;;6.15;nan;102066.38;4989641;28;20642;-66
2022/11/26 07:31:20;;;;;;;3.70;3.40;;;5.90;99.90;;;6.26;nan;102079.84;4973757;28;20662;-66
2022/11/26 07:33:48;;;;;;;6.43;3.80;;;6.00;99.90;;;6.32;nan;102081.41;4967307;28;20664;-65
2022/11/26 07:36:19;;;;;;;8.80;3.87;;;6.10;99.90;;;6.41;nan;102084.53;4990613;28;20642;-66
2022/11/26 07:38:46;;;;;;;3.00;2.63;;;6.10;99.90;;;6.48;nan;102088.63;4988925;28;20648;-65
2022/11/26 07:41:17;;;;;;;6.40;2.97;;;6.10;99.90;;;6.79;nan;102085.91;4988320;28;20700;-65
2022/11/26 07:43:44;;;;;;;4.43;3.43;;;6.30;99.90;;;7.37;nan;102085.56;4967240;28;20671;-63
2022/11/26 07:46:17;;;;;;;10.47;4.30;;;6.60;99.90;;;7.97;nan;102082.47;4985691;28;20664;-65
2022/11/26 07:48:44;;;;;;;9.33;5.13;;;6.90;99.90;;;8.77;nan;102089.69;4988262;28;20621;-65
2022/11/26 07:51:19;;;;;;;6.80;4.00;;;7.50;99.90;;;9.76;nan;102092.25;4991284;28;20725;-66
2022/11/26 07:53:47;;;;;;;5.03;3.10;;;8.10;99.90;;;10.64;nan;102093.31;4988992;28;20652;-66
2022/11/26 07:56:14;;;;;;;4.33;3.13;;;8.80;99.90;;;11.38;nan;102110.41;4970005;28;20641;-65
2022/11/26 07:58:41;;;;;;;4.40;4.00;;;9.40;99.90;;;11.96;nan;102101.19;4987484;28;20653;-66
2022/11/26 08:01:11;;;;;;;5.57;4.10;;;10.00;99.90;;;12.52;nan;102112.91;4990109;28;20684;-66
2022/11/26 08:03:41;;;;;;;4.87;3.40;;;10.50;99.90;;;13.33;nan;102115.13;4989199;28;21057;-65
2022/11/26 08:06:11;;;;;;;4.63;3.70;;;11.00;99.90;;;14.48;nan;102117.44;4975475;28;20631;-65
2022/11/26 08:08:38;;;;;;;5.53;3.53;;;11.80;99.90;;;15.95;nan;102116.09;4989380;28;20665;-66
2022/11/26 08:11:16;;;;;;;4.90;4.20;;;12.80;99.90;;;17.75;nan;102118.34;4989285;28;20681;-67
2022/11/26 08:16:18;;;;;;;6.93;3.90;;;15.40;99.90;;;20.80;nan;102118.59;4988743;28;20700;-66
2022/11/26 08:18:45;;;;;;;5.90;4.47;;;16.60;99.90;;;22.16;nan;102111.75;4956501;28;20667;-66
2022/11/26 08:21:12;;;;;;;5.30;3.90;;;17.80;99.90;;;23.20;nan;102118.16;4971455;28;20627;-65
2022/11/26 08:23:39;;;;;;;5.90;4.20;;;18.70;98.40;;;23.90;nan;102123.22;4986159;28;20669;-65
2022/11/26 08:26:12;;;;;;;4.37;3.90;;;19.60;96.30;;;24.50;nan;102127.44;5010311;28;20654;-65
2022/11/26 08:28:50;;;;;;;7.03;4.30;;;20.40;93.60;;;25.64;nan;102133.56;4975195;28;20637;-66
2022/11/26 08:31:17;;;;;;;6.37;3.97;;;21.40;90.40;;;26.86;nan;102132.72;5010486;28;21086;-66
2022/11/26 08:33:45;;;;;;;5.90;4.30;;;22.30;85.50;;;27.71;nan;102141.28;4993652;28;21065;-65
2022/11/26 08:36:12;;;;;;;6.00;3.90;;;23.10;78.70;;;28.57;nan;102128.72;4990852;28;20669;-65
2022/11/26 08:38:39;;;;;;;6.43;4.10;;;23.70;75.00;;;29.03;nan;102127.25;4994823;28;20634;-66
2022/11/26 08:41:12;;;;;;;5.83;4.60;;;24.10;72.20;;;29.46;nan;102127.97;4996645;28;20635;-65
2022/11/26 08:43:40;;;;;;;5.70;4.70;;;24.80;79.30;;;30.16;nan;102134.94;4990395;28;20639;-66
2022/11/26 08:46:27;;;;;;;6.63;4.93;;;25.50;66.40;;;30.97;nan;102131.16;4976783;28;20611;-66
2022/11/26 08:48:55;;;;;;;6.37;4.47;;;26.10;63.10;;;30.87;nan;102126.22;4981117;28;20858;-66
2022/11/26 08:51:23;;;;;;;7.43;3.90;;;26.10;61.80;;;30.55;nan;102124.28;4992496;28;20736;-67
2022/11/26 08:53:51;;;;;;;4.03;3.63;;;25.80;61.10;;;30.12;nan;102123.75;4956820;28;21001;-66
2022/11/26 08:56:18;;;;;;;3.40;3.17;;;25.50;60.60;;;29.24;nan;102121.00;4958041;28;20619;-66
2022/11/26 08:58:47;;;;;;;3.60;3.20;;;25.00;60.80;;;25.94;nan;102119.38;5002378;28;20633;-65
2022/11/26 09:01:18;;;;;;;3.50;3.20;;;23.50;62.20;;;22.20;nan;102110.47;4976368;28;20634;-65
2022/11/26 09:03:54;;;;;;;4.03;3.63;;;21.20;66.20;;;19.70;nan;102117.94;4987151;28;20621;-66
2022/11/26 09:06:23;;;;;;;5.53;3.90;;;19.10;70.90;;;17.90;nan;102116.31;4980125;28;20638;-66
2022/11/26 09:11:59;;;;;;;4.53;3.30;;;16.10;81.60;;;15.38;nan;102128.88;4988412;28;20668;-66
2022/11/26 09:14:30;;;;;;;6.20;3.67;;;14.90;89.40;;;14.61;nan;102131.47;4979209;28;20673;-65
2022/11/26 09:16:57;;;;;;;5.47;3.40;;;14.00;94.60;;;14.01;nan;102132.75;5003103;28;22191;-65
2022/11/26 09:19:26;;;;;;;5.43;3.10;;;13.40;98.70;;;13.63;nan;102129.03;4992963;28;20626;-65
2022/11/26 09:21:54;;;;;;;5.07;3.00;;;12.90;99.90;;;12.80;nan;102128.75;5000937;28;20645;-65
2022/11/26 09:24:21;;;;;;;6.50;4.17;;;12.40;99.90;;;12.48;nan;102139.25;4993937;28;21034;-66
2022/11/26 09:26:48;;;;;;;4.63;3.33;;;12.10;99.90;;;12.25;nan;102131.84;4975259;28;21203;-65
2022/11/26 09:29:21;;;;;;;3.60;3.20;;;11.80;99.90;;;12.11;nan;102139.59;4972065;28;20653;-65
2022/11/26 09:31:50;;;;;;;3.13;2.80;;;11.60;99.90;;;11.98;nan;102143.81;4994261;28;20670;-66
2022/11/26 09:34:37;;;;;;;4.00;2.90;;;11.40;99.90;;;11.80;nan;102142.16;4982944;28;21051;-66
2022/11/26 09:37:04;;;;;;;2.70;2.50;;;11.30;99.90;;;11.79;nan;102144.88;4991804;28;20707;-65
2022/11/26 09:39:32;;;;;;;2.33;2.13;;;11.20;99.90;;;11.77;nan;102151.94;4994067;28;20618;-66
2022/11/26 09:42:43;;;;;;;2.53;2.43;;;11.10;99.90;;;11.61;nan;102137.03;4992585;28;20623;-66
2022/11/26 09:45:22;;;;;;;2.30;2.20;;;11.00;99.90;;;11.51;nan;102146.28;4991305;28;20670;-66
2022/11/26 09:47:52;;;;;;;2.93;2.73;;;10.80;99.90;;;11.45;nan;102156.22;4980015;28;20633;-66
2022/11/26 09:50:34;;;;;;;2.90;2.70;;;10.70;99.90;;;11.40;nan;102158.22;4991049;28;20615;-65
2022/11/26 09:53:12;;;;;;;2.67;2.47;;;10.70;99.90;;;11.32;nan;102158.63;4981488;28;20985;-65
2022/11/26 09:55:43;;;;;;;2.73;2.50;;;10.70;99.90;;;11.28;nan;102153.63;5007517;28;20656;-66
2022/11/26 09:58:22;;;;;;;2.37;2.17;;;10.60;99.90;;;11.22;nan;102153.94;4974358;28;20627;-65
2022/11/26 10:00:57;;;;;;;2.00;1.90;;;10.60;99.90;;;11.28;nan;102148.41;4991196;28;20704;-66
2022/11/26 10:03:35;;;;;;;2.67;2.47;;;10.60;99.90;;;11.24;nan;102146.88;4991780;28;20634;-66
2022/11/26 10:06:32;;;;;;;4.20;2.20;;;10.50;99.90;;;11.34;nan;102140.22;4987146;28;20666;-66
2022/11/26 10:09:29;;;;;;;3.80;2.50;;;10.60;99.90;;;11.23;nan;102146.00;4993079;28;20661;-66
2022/11/26 10:12:36;;;;;;;2.57;2.37;;;10.50;99.90;;;11.26;nan;102145.88;4992518;28;20725;-66
2022/11/26 10:15:37;;;;;;;6.67;2.87;;;10.50;99.90;;;11.48;nan;102156.88;4973449;28;20655;-67
2022/11/26 10:18:37;;;;;;;2.83;2.37;;;10.60;99.90;;;11.51;nan;102158.50;4965518;28;20732;-67
2022/11/26 10:21:25;;;;;;;3.13;2.83;;;10.70;99.90;;;11.38;nan;102153.06;4992109;28;20627;-67
2022/11/26 10:24:34;;;;;;;4.00;2.10;;;10.80;99.90;;;11.55;nan;102160.03;4984158;28;20662;-66
2022/11/26 10:27:11;;;;;;;2.03;1.93;;;10.80;99.90;;;11.73;nan;102160.88;4958821;28;21198;-66
2022/11/26 10:29:42;;;;;;;3.17;2.23;;;10.90;99.90;;;11.78;nan;102154.47;4975308;28;20700;-66
2022/11/26 10:32:25;;;;;;;3.07;2.30;;;10.90;99.90;;;11.60;nan;102158.03;4990460;28;21229;-67
2022/11/26 10:34:57;;;;;;;2.00;1.90;;;11.00;99.90;;;11.56;nan;102159.94;4988606;28;20662;-66
2022/11/26 10:37:27;;;;;;;2.63;2.17;;;10.90;99.90;;;11.68;nan;102153.28;4992578;28;21255;-66
2022/11/26 10:40:24;;;;;;;5.30;2.73;;;11.00;99.90;;;11.78;nan;102146.63;4993814;28;20626;-67
2022/11/26 10:43:13;;;;;;;3.07;2.53;;;11.00;99.90;;;11.77;nan;102150.19;5000463;28;20697;-67
2022/11/26 10:45:50;;;;;;;3.50;2.33;;;11.10;99.90;;;11.67;nan;102149.81;4978194;28;20651;-67
2022/11/26 10:48:26;;;;;;;3.00;2.60;;;11.00;99.90;;;11.57;nan;102152.97;4987657;28;21227;-66
2022/11/26 10:51:12;;;;;;;2.30;2.10;;;11.00;99.90;;;11.27;nan;102146.69;5012652;28;20688;-67
2022/11/26 10:53:53;;;;;;;2.87;2.33;;;10.80;99.90;;;11.35;nan;102149.78;4977426;28;21116;-68
2022/11/26 10:56:40;;;;;;;2.70;2.47;;;10.70;99.90;;;11.53;nan;102148.81;4992782;28;21249;-68
2022/11/26 10:59:28;;;;;;;6.80;3.30;;;10.80;99.90;;;11.58;nan;102136.38;4973657;28;20681;-67
2022/11/26 11:02:03;;;;;;;3.80;3.50;;;10.80;99.90;;;11.45;nan;102141.38;4982527;28;21272;-67